S C — FGF7634 — position and weather

sailwx.info

Track history (hours):
 
Tides and Currents Weather Stations Pressure Air Temp Water Temp Dewpoint Dewpoint Depression Visibility Wind Speed Wind Dir Waves Ship Positions

S C

Last reported at 2016-Dec-02 08:27 UTC. Time now 2016-Dec-06 14:08 UTC.
Position N 49°29' E 000°07'.

; draft 1 m.

Type: Pilot. MMSI: 227001820.

Date/timePositionNaut miles runAvg speedWind from/ knotsBaromVisibWave heightAir tempDewpointWater temp
2016-Dec-02 08:27N 49°29' E 000°07'0 0.0
2016-Dec-02 07:33N 49°29' E 000°07'0 0.3
2016-Dec-02 06:33N 49°29' E 000°06'0 0.3
2016-Dec-02 05:33N 49°29' E 000°07'0 0.0
2016-Dec-02 04:33N 49°29' E 000°07'0 0.0
2016-Dec-02 03:33N 49°29' E 000°07'0 0.0
2016-Dec-02 02:33N 49°29' E 000°07'0 0.0
2016-Dec-02 01:33N 49°29' E 000°07'0 0.0
2016-Dec-02 00:34N 49°29' E 000°07'0 0.0
2016-Dec-01 23:33N 49°29' E 000°07'0 0.0
2016-Dec-01 22:33N 49°29' E 000°07'0 0.0
2016-Dec-01 13:16N 49°29' E 000°07'0 0.0
2016-Dec-01 10:15N 49°29' E 000°07'0 0.0
2016-Dec-01 09:33N 49°29' E 000°07'0 0.0
2016-Nov-30 08:11N 49°29' E 000°07'0 0.2
2016-Nov-30 07:34N 49°29' E 000°07'0 0.1
2016-Nov-30 06:34N 49°29' E 000°07'0 0.0
2016-Nov-30 05:34N 49°29' E 000°07'0 0.0
2016-Nov-30 04:34N 49°29' E 000°07'0 0.0
2016-Nov-30 03:33N 49°29' E 000°07'0 0.0
2016-Nov-30 02:33N 49°29' E 000°07'4 4.0
2016-Nov-30 01:33N 49°31' E 000°01'4 4.0
2016-Nov-30 00:33N 49°29' E 000°07'0 0.0
2016-Nov-29 23:33N 49°29' E 000°07'0 0.0
2016-Nov-29 22:33N 49°29' E 000°07'0 0.0
2016-Nov-29 21:33N 49°29' E 000°07'0 0.0
2016-Nov-29 20:33N 49°29' E 000°07'3 3.2
2016-Nov-29 19:33N 49°30' E 000°02'3 3.2
2016-Nov-29 18:33N 49°29' E 000°07'0 0.0
2016-Nov-29 17:33N 49°29' E 000°07'0 0.0
2016-Nov-29 16:33N 49°29' E 000°07'2 2.5
2016-Nov-29 15:34N 49°30' E 000°03'2 2.5
2016-Nov-29 14:33N 49°29' E 000°07'0 0.0
2016-Nov-29 13:33N 49°29' E 000°07'4 4.2
2016-Nov-29 12:33N 49°30' E 000°00'4 4.2
2016-Nov-29 11:33N 49°29' E 000°07'0 0.0
2016-Nov-29 10:33N 49°29' E 000°07'1 0.9
2016-Nov-29 09:34N 49°29' E 000°05'1 0.9
2016-Nov-29 08:33N 49°29' E 000°07'0 0.0
2016-Nov-29 07:33N 49°29' E 000°07'0 0.0
2016-Nov-29 06:33N 49°29' E 000°07'0 0.0
2016-Nov-29 05:34N 49°29' E 000°07'1 1.3
2016-Nov-29 04:33N 49°29' E 000°05'0 0.5
2016-Nov-29 03:33N 49°29' E 000°05'1 0.8
2016-Nov-29 02:34N 49°29' E 000°07'0 0.0
2016-Nov-29 01:34N 49°29' E 000°07'7 7.4
2016-Nov-29 00:33N 49°31' W 000°04'7 7.4
2016-Nov-28 23:34N 49°29' E 000°07'0 0.0
2016-Nov-28 22:33N 49°29' E 000°07'0 0.0
2016-Nov-28 21:34N 49°29' E 000°07'0 0.2
2016-Nov-28 20:33N 49°29' E 000°07'0 0.2
2016-Nov-28 19:33N 49°29' E 000°07'0 0.0
2016-Nov-28 18:33N 49°29' E 000°07'0 0.0
2016-Nov-28 17:33N 49°29' E 000°07'0 0.0
2016-Nov-28 16:33N 49°29' E 000°07'7 7.2
2016-Nov-28 15:33N 49°31' W 000°04'7 7.2
2016-Nov-28 14:34N 49°29' E 000°07'0 0.0
2016-Nov-28 13:34N 49°29' E 000°07'0 0.0
2016-Nov-28 12:34N 49°29' E 000°07'0 0.0
2016-Nov-28 11:33N 49°29' E 000°07'0 0.0
2016-Nov-28 10:34N 49°29' E 000°07'0 0.0
2016-Nov-28 09:34N 49°29' E 000°07'0 0.2
2016-Nov-28 08:33N 49°29' E 000°06'0 0.3
2016-Nov-28 07:33N 49°29' E 000°07'0 0.1
2016-Nov-28 06:34N 49°29' E 000°07'6 6.1
2016-Nov-28 05:33N 49°31' W 000°02'6 6.1
2016-Nov-28 04:33N 49°29' E 000°07'7 7.5
2016-Nov-28 03:33N 49°31' W 000°04'7 7.5
2016-Nov-28 02:33N 49°29' E 000°07'8 8.4
2016-Nov-28 01:33N 49°31' W 000°06'8 8.4
2016-Nov-28 00:33N 49°29' E 000°07'0 0.0
2016-Nov-27 23:33N 49°29' E 000°07'0 0.0
2016-Nov-27 22:33N 49°29' E 000°07'7 6.6
2016-Nov-27 21:34N 49°31' W 000°03'6 6.0
2016-Nov-27 20:33N 49°29' E 000°06'6 6.4
2016-Nov-27 19:33N 49°31' W 000°04'6 5.7
2016-Nov-27 18:33N 49°29' E 000°05'1 1.3
2016-Nov-27 17:33N 49°29' E 000°07'0 0.0
2016-Nov-27 16:33N 49°29' E 000°07'1 0.9
2016-Nov-27 15:33N 49°29' E 000°05'1 0.9
2016-Nov-27 14:33N 49°29' E 000°07'0 0.0
2016-Nov-27 13:33N 49°29' E 000°07'1 1.4
2016-Nov-27 12:34N 49°29' E 000°05'1 1.4
2016-Nov-27 11:33N 49°29' E 000°07'4 3.6
2016-Nov-27 10:33N 49°30' E 000°02'4 3.6
2016-Nov-27 09:33N 49°29' E 000°07'0 0.0
2016-Nov-27 08:33N 49°29' E 000°07'0 0.0
2016-Nov-27 07:33N 49°29' E 000°07'0 0.5
2016-Nov-27 06:33N 49°29' E 000°06'1010.1
2016-Nov-27 05:33N 49°32' W 000°09'1110.5
2016-Nov-27 04:33N 49°29' E 000°07'0 0.0
2016-Nov-27 03:33N 49°29' E 000°07'0 0.0
2016-Nov-27 02:33N 49°29' E 000°07'0 0.0
2016-Nov-27 01:33N 49°29' E 000°07'0 0.0
2016-Nov-27 00:33N 49°29' E 000°07'0 0.0
2016-Nov-26 23:33N 49°29' E 000°07'0 0.0
2016-Nov-26 22:33N 49°29' E 000°07'1 0.6
2016-Nov-26 21:33N 49°29' E 000°06'1 0.9
2016-Nov-26 20:33N 49°29' E 000°05'1 0.8
2016-Nov-26 19:33N 49°29' E 000°06'0 0.2
2016-Nov-26 18:33N 49°29' E 000°06'0 0.1
2016-Nov-26 17:33N 49°29' E 000°06'1 0.6
2016-Nov-26 16:33N 49°29' E 000°07'7 7.5
2016-Nov-26 15:33N 49°31' W 000°04'7 7.5
2016-Nov-26 14:33N 49°29' E 000°07'0 0.0
2016-Nov-26 13:33N 49°29' E 000°07'7 7.2
2016-Nov-26 12:33N 49°30' W 000°04'7 7.2
2016-Nov-26 11:33N 49°29' E 000°07'0 0.0
2016-Nov-26 10:33N 49°29' E 000°07'0 0.0
2016-Nov-26 09:33N 49°29' E 000°07'1 0.8
2016-Nov-26 08:33N 49°29' E 000°06'1 0.8
2016-Nov-26 07:33N 49°29' E 000°07'0 0.0
2016-Nov-26 06:33N 49°29' E 000°07'0 0.0
2016-Nov-26 05:33N 49°29' E 000°07'1 0.7
2016-Nov-26 04:33N 49°29' E 000°06'1 0.6
2016-Nov-26 03:33N 49°29' E 000°07'0 0.0
2016-Nov-26 02:33N 49°29' E 000°07'2 1.7
2016-Nov-26 01:33N 49°29' E 000°04'2 1.7
2016-Nov-26 00:34N 49°29' E 000°07'0 0.0
2016-Nov-25 23:34N 49°29' E 000°07'1 0.9
2016-Nov-25 22:33N 49°29' E 000°05'1 0.5
2016-Nov-25 21:34N 49°29' E 000°06'0 0.4
2016-Nov-25 20:33N 49°29' E 000°07'0 0.0
2016-Nov-25 19:34N 49°29' E 000°07'  
2016-Nov-22 13:11N 49°29' E 000°07'  
Track history (hours):
 
Tides and Currents Weather Stations Pressure Air Temp Water Temp Dewpoint Dewpoint Depression Visibility Wind Speed Wind Dir Waves Ship Positions

S C

Last reported at 2016-Dec-02 08:27 UTC. Time now 2016-Dec-06 14:08 UTC.
Position N 49°29' E 000°07'.

; draft 1 m.

Type: Pilot. MMSI: 227001820.

Date/timePositionNaut miles runAvg speedWind from/ knotsBaromVisibWave heightAir tempDewpointWater temp
2016-Dec-02 08:27N 49°29' E 000°07'0 0.0
2016-Dec-02 07:33N 49°29' E 000°07'0 0.3
2016-Dec-02 06:33N 49°29' E 000°06'0 0.3
2016-Dec-02 05:33N 49°29' E 000°07'0 0.0
2016-Dec-02 04:33N 49°29' E 000°07'0 0.0
2016-Dec-02 03:33N 49°29' E 000°07'0 0.0
2016-Dec-02 02:33N 49°29' E 000°07'0 0.0
2016-Dec-02 01:33N 49°29' E 000°07'0 0.0
2016-Dec-02 00:34N 49°29' E 000°07'0 0.0
2016-Dec-01 23:33N 49°29' E 000°07'0 0.0
2016-Dec-01 22:33N 49°29' E 000°07'0 0.0
2016-Dec-01 13:16N 49°29' E 000°07'0 0.0
2016-Dec-01 10:15N 49°29' E 000°07'0 0.0
2016-Dec-01 09:33N 49°29' E 000°07'0 0.0
2016-Nov-30 08:11N 49°29' E 000°07'0 0.2
2016-Nov-30 07:34N 49°29' E 000°07'0 0.1
2016-Nov-30 06:34N 49°29' E 000°07'0 0.0
2016-Nov-30 05:34N 49°29' E 000°07'0 0.0
2016-Nov-30 04:34N 49°29' E 000°07'0 0.0
2016-Nov-30 03:33N 49°29' E 000°07'0 0.0
2016-Nov-30 02:33N 49°29' E 000°07'4 4.0
2016-Nov-30 01:33N 49°31' E 000°01'4 4.0
2016-Nov-30 00:33N 49°29' E 000°07'0 0.0
2016-Nov-29 23:33N 49°29' E 000°07'0 0.0
2016-Nov-29 22:33N 49°29' E 000°07'0 0.0
2016-Nov-29 21:33N 49°29' E 000°07'0 0.0
2016-Nov-29 20:33N 49°29' E 000°07'3 3.2
2016-Nov-29 19:33N 49°30' E 000°02'3 3.2
2016-Nov-29 18:33N 49°29' E 000°07'0 0.0
2016-Nov-29 17:33N 49°29' E 000°07'0 0.0
2016-Nov-29 16:33N 49°29' E 000°07'2 2.5
2016-Nov-29 15:34N 49°30' E 000°03'2 2.5
2016-Nov-29 14:33N 49°29' E 000°07'0 0.0
2016-Nov-29 13:33N 49°29' E 000°07'4 4.2
2016-Nov-29 12:33N 49°30' E 000°00'4 4.2
2016-Nov-29 11:33N 49°29' E 000°07'0 0.0
2016-Nov-29 10:33N 49°29' E 000°07'1 0.9
2016-Nov-29 09:34N 49°29' E 000°05'1 0.9
2016-Nov-29 08:33N 49°29' E 000°07'0 0.0
2016-Nov-29 07:33N 49°29' E 000°07'0 0.0
2016-Nov-29 06:33N 49°29' E 000°07'0 0.0
2016-Nov-29 05:34N 49°29' E 000°07'1 1.3
2016-Nov-29 04:33N 49°29' E 000°05'0 0.5
2016-Nov-29 03:33N 49°29' E 000°05'1 0.8
2016-Nov-29 02:34N 49°29' E 000°07'0 0.0
2016-Nov-29 01:34N 49°29' E 000°07'7 7.4
2016-Nov-29 00:33N 49°31' W 000°04'7 7.4
2016-Nov-28 23:34N 49°29' E 000°07'0 0.0
2016-Nov-28 22:33N 49°29' E 000°07'0 0.0
2016-Nov-28 21:34N 49°29' E 000°07'0 0.2
2016-Nov-28 20:33N 49°29' E 000°07'0 0.2
2016-Nov-28 19:33N 49°29' E 000°07'0 0.0
2016-Nov-28 18:33N 49°29' E 000°07'0 0.0
2016-Nov-28 17:33N 49°29' E 000°07'0 0.0
2016-Nov-28 16:33N 49°29' E 000°07'7 7.2
2016-Nov-28 15:33N 49°31' W 000°04'7 7.2
2016-Nov-28 14:34N 49°29' E 000°07'0 0.0
2016-Nov-28 13:34N 49°29' E 000°07'0 0.0
2016-Nov-28 12:34N 49°29' E 000°07'0 0.0
2016-Nov-28 11:33N 49°29' E 000°07'0 0.0
2016-Nov-28 10:34N 49°29' E 000°07'0 0.0
2016-Nov-28 09:34N 49°29' E 000°07'0 0.2
2016-Nov-28 08:33N 49°29' E 000°06'0 0.3
2016-Nov-28 07:33N 49°29' E 000°07'0 0.1
2016-Nov-28 06:34N 49°29' E 000°07'6 6.1
2016-Nov-28 05:33N 49°31' W 000°02'6 6.1
2016-Nov-28 04:33N 49°29' E 000°07'7 7.5
2016-Nov-28 03:33N 49°31' W 000°04'7 7.5
2016-Nov-28 02:33N 49°29' E 000°07'8 8.4
2016-Nov-28 01:33N 49°31' W 000°06'8 8.4
2016-Nov-28 00:33N 49°29' E 000°07'0 0.0
2016-Nov-27 23:33N 49°29' E 000°07'0 0.0
2016-Nov-27 22:33N 49°29' E 000°07'7 6.6
2016-Nov-27 21:34N 49°31' W 000°03'6 6.0
2016-Nov-27 20:33N 49°29' E 000°06'6 6.4
2016-Nov-27 19:33N 49°31' W 000°04'6 5.7
2016-Nov-27 18:33N 49°29' E 000°05'1 1.3
2016-Nov-27 17:33N 49°29' E 000°07'0 0.0
2016-Nov-27 16:33N 49°29' E 000°07'1 0.9
2016-Nov-27 15:33N 49°29' E 000°05'1 0.9
2016-Nov-27 14:33N 49°29' E 000°07'0 0.0
2016-Nov-27 13:33N 49°29' E 000°07'1 1.4
2016-Nov-27 12:34N 49°29' E 000°05'1 1.4
2016-Nov-27 11:33N 49°29' E 000°07'4 3.6
2016-Nov-27 10:33N 49°30' E 000°02'4 3.6
2016-Nov-27 09:33N 49°29' E 000°07'0 0.0
2016-Nov-27 08:33N 49°29' E 000°07'0 0.0
2016-Nov-27 07:33N 49°29' E 000°07'0 0.5
2016-Nov-27 06:33N 49°29' E 000°06'1010.1
2016-Nov-27 05:33N 49°32' W 000°09'1110.5
2016-Nov-27 04:33N 49°29' E 000°07'0 0.0
2016-Nov-27 03:33N 49°29' E 000°07'0 0.0
2016-Nov-27 02:33N 49°29' E 000°07'0 0.0
2016-Nov-27 01:33N 49°29' E 000°07'0 0.0
2016-Nov-27 00:33N 49°29' E 000°07'0 0.0
2016-Nov-26 23:33N 49°29' E 000°07'0 0.0
2016-Nov-26 22:33N 49°29' E 000°07'1 0.6
2016-Nov-26 21:33N 49°29' E 000°06'1 0.9
2016-Nov-26 20:33N 49°29' E 000°05'1 0.8
2016-Nov-26 19:33N 49°29' E 000°06'0 0.2
2016-Nov-26 18:33N 49°29' E 000°06'0 0.1
2016-Nov-26 17:33N 49°29' E 000°06'1 0.6
2016-Nov-26 16:33N 49°29' E 000°07'7 7.5
2016-Nov-26 15:33N 49°31' W 000°04'7 7.5
2016-Nov-26 14:33N 49°29' E 000°07'0 0.0
2016-Nov-26 13:33N 49°29' E 000°07'7 7.2
2016-Nov-26 12:33N 49°30' W 000°04'7 7.2
2016-Nov-26 11:33N 49°29' E 000°07'0 0.0
2016-Nov-26 10:33N 49°29' E 000°07'0 0.0
2016-Nov-26 09:33N 49°29' E 000°07'1 0.8
2016-Nov-26 08:33N 49°29' E 000°06'1 0.8
2016-Nov-26 07:33N 49°29' E 000°07'0 0.0
2016-Nov-26 06:33N 49°29' E 000°07'0 0.0
2016-Nov-26 05:33N 49°29' E 000°07'1 0.7
2016-Nov-26 04:33N 49°29' E 000°06'1 0.6
2016-Nov-26 03:33N 49°29' E 000°07'0 0.0
2016-Nov-26 02:33N 49°29' E 000°07'2 1.7
2016-Nov-26 01:33N 49°29' E 000°04'2 1.7
2016-Nov-26 00:34N 49°29' E 000°07'0 0.0
2016-Nov-25 23:34N 49°29' E 000°07'1 0.9
2016-Nov-25 22:33N 49°29' E 000°05'1 0.5
2016-Nov-25 21:34N 49°29' E 000°06'0 0.4
2016-Nov-25 20:33N 49°29' E 000°07'0 0.0
2016-Nov-25 19:34N 49°29' E 000°07'  
2016-Nov-22 13:11N 49°29' E 000°07'  

Dump ship's entire track history